sensor_id;sensor_type;location;lat;lon;timestamp;P1;durP1;ratioP1;P2;durP2;ratioP2
71475;SDS011;59286;59.274;17.974;2023-04-25T00:01:38;6.68;;;5.40;;
71475;SDS011;59286;59.274;17.974;2023-04-25T00:04:03;7.55;;;5.28;;
71475;SDS011;59286;59.274;17.974;2023-04-25T00:06:30;6.78;;;5.38;;
71475;SDS011;59286;59.274;17.974;2023-04-25T00:08:56;8.27;;;5.55;;
71475;SDS011;59286;59.274;17.974;2023-04-25T00:11:22;8.88;;;5.05;;
71475;SDS011;59286;59.274;17.974;2023-04-25T00:13:48;7.05;;;4.28;;
71475;SDS011;59286;59.274;17.974;2023-04-25T00:16:14;5.60;;;4.78;;
71475;SDS011;59286;59.274;17.974;2023-04-25T00:18:41;5.78;;;5.10;;
71475;SDS011;59286;59.274;17.974;2023-04-25T00:21:07;6.68;;;5.07;;
71475;SDS011;59286;59.274;17.974;2023-04-25T00:23:32;8.95;;;4.95;;
71475;SDS011;59286;59.274;17.974;2023-04-25T00:26:01;5.55;;;4.35;;
71475;SDS011;59286;59.274;17.974;2023-04-25T00:28:27;5.88;;;5.07;;
71475;SDS011;59286;59.274;17.974;2023-04-25T00:30:53;6.63;;;5.22;;
71475;SDS011;59286;59.274;17.974;2023-04-25T00:33:18;4.85;;;4.43;;
71475;SDS011;59286;59.274;17.974;2023-04-25T00:35:43;5.22;;;4.72;;
71475;SDS011;59286;59.274;17.974;2023-04-25T00:38:09;6.65;;;5.40;;
71475;SDS011;59286;59.274;17.974;2023-04-25T00:40:34;9.02;;;5.95;;
71475;SDS011;59286;59.274;17.974;2023-04-25T00:43:00;7.22;;;6.50;;
71475;SDS011;59286;59.274;17.974;2023-04-25T00:45:28;6.63;;;5.25;;
71475;SDS011;59286;59.274;17.974;2023-04-25T00:47:54;6.60;;;5.75;;
71475;SDS011;59286;59.274;17.974;2023-04-25T00:50:20;6.90;;;5.57;;
71475;SDS011;59286;59.274;17.974;2023-04-25T00:52:45;7.28;;;5.68;;
71475;SDS011;59286;59.274;17.974;2023-04-25T00:55:11;5.63;;;4.70;;
71475;SDS011;59286;59.274;17.974;2023-04-25T00:57:37;7.25;;;4.93;;
71475;SDS011;59286;59.274;17.974;2023-04-25T01:00:06;6.63;;;4.80;;
71475;SDS011;59286;59.274;17.974;2023-04-25T01:02:34;5.15;;;3.03;;
71475;SDS011;59286;59.274;17.974;2023-04-25T01:05:02;5.82;;;3.40;;
71475;SDS011;59286;59.274;17.974;2023-04-25T01:07:28;6.03;;;3.65;;
71475;SDS011;59286;59.274;17.974;2023-04-25T01:09:54;6.20;;;4.30;;
71475;SDS011;59286;59.274;17.974;2023-04-25T01:12:19;7.10;;;4.28;;
71475;SDS011;59286;59.274;17.974;2023-04-25T01:14:45;6.00;;;3.45;;
71475;SDS011;59286;59.274;17.974;2023-04-25T01:17:11;7.78;;;3.10;;
71475;SDS011;59286;59.274;17.974;2023-04-25T01:19:37;4.72;;;3.08;;
71475;SDS011;59286;59.274;17.974;2023-04-25T01:22:02;5.30;;;3.58;;
71475;SDS011;59286;59.274;17.974;2023-04-25T01:24:28;6.78;;;3.55;;
71475;SDS011;59286;59.274;17.974;2023-04-25T01:26:54;4.82;;;3.20;;
71475;SDS011;59286;59.274;17.974;2023-04-25T01:29:21;4.97;;;3.42;;
71475;SDS011;59286;59.274;17.974;2023-04-25T01:31:46;4.00;;;2.90;;
71475;SDS011;59286;59.274;17.974;2023-04-25T01:34:12;3.47;;;2.67;;
71475;SDS011;59286;59.274;17.974;2023-04-25T01:36:38;4.03;;;2.65;;
71475;SDS011;59286;59.274;17.974;2023-04-25T01:39:04;4.78;;;2.88;;
71475;SDS011;59286;59.274;17.974;2023-04-25T01:41:30;13.85;;;3.70;;
71475;SDS011;59286;59.274;17.974;2023-04-25T01:43:55;6.50;;;3.45;;
71475;SDS011;59286;59.274;17.974;2023-04-25T01:46:21;5.80;;;3.78;;
71475;SDS011;59286;59.274;17.974;2023-04-25T01:48:46;6.15;;;2.95;;
71475;SDS011;59286;59.274;17.974;2023-04-25T01:51:12;10.45;;;3.08;;
71475;SDS011;59286;59.274;17.974;2023-04-25T01:53:38;3.70;;;2.40;;
71475;SDS011;59286;59.274;17.974;2023-04-25T01:56:04;3.67;;;2.67;;
71475;SDS011;59286;59.274;17.974;2023-04-25T01:58:29;5.20;;;2.67;;
71475;SDS011;59286;59.274;17.974;2023-04-25T02:00:55;3.47;;;2.90;;
71475;SDS011;59286;59.274;17.974;2023-04-25T02:03:20;5.30;;;3.05;;
71475;SDS011;59286;59.274;17.974;2023-04-25T02:05:45;3.88;;;2.97;;
71475;SDS011;59286;59.274;17.974;2023-04-25T02:08:11;5.75;;;3.03;;
71475;SDS011;59286;59.274;17.974;2023-04-25T02:10:36;5.75;;;3.00;;
71475;SDS011;59286;59.274;17.974;2023-04-25T02:13:02;6.97;;;3.08;;
71475;SDS011;59286;59.274;17.974;2023-04-25T02:15:29;3.85;;;2.10;;
71475;SDS011;59286;59.274;17.974;2023-04-25T02:17:54;2.88;;;2.28;;
71475;SDS011;59286;59.274;17.974;2023-04-25T02:20:20;2.55;;;2.33;;
71475;SDS011;59286;59.274;17.974;2023-04-25T02:22:46;1.67;;;1.58;;
71475;SDS011;59286;59.274;17.974;2023-04-25T02:25:12;2.22;;;1.52;;
71475;SDS011;59286;59.274;17.974;2023-04-25T02:27:37;1.58;;;1.48;;
71475;SDS011;59286;59.274;17.974;2023-04-25T02:30:04;1.20;;;1.10;;
71475;SDS011;59286;59.274;17.974;2023-04-25T02:32:30;1.58;;;1.30;;
71475;SDS011;59286;59.274;17.974;2023-04-25T02:34:55;1.52;;;1.42;;
71475;SDS011;59286;59.274;17.974;2023-04-25T02:37:23;2.10;;;1.50;;
71475;SDS011;59286;59.274;17.974;2023-04-25T02:39:49;2.20;;;1.40;;
71475;SDS011;59286;59.274;17.974;2023-04-25T02:42:14;0.95;;;0.95;;
71475;SDS011;59286;59.274;17.974;2023-04-25T02:44:40;2.03;;;1.40;;
71475;SDS011;59286;59.274;17.974;2023-04-25T02:47:05;2.00;;;1.30;;
71475;SDS011;59286;59.274;17.974;2023-04-25T02:49:31;2.08;;;1.60;;
71475;SDS011;59286;59.274;17.974;2023-04-25T02:51:56;1.40;;;1.30;;
71475;SDS011;59286;59.274;17.974;2023-04-25T02:54:21;1.33;;;1.23;;
71475;SDS011;59286;59.274;17.974;2023-04-25T02:56:47;1.30;;;1.20;;
71475;SDS011;59286;59.274;17.974;2023-04-25T02:59:12;1.35;;;1.25;;
71475;SDS011;59286;59.274;17.974;2023-04-25T03:01:37;1.50;;;1.40;;
71475;SDS011;59286;59.274;17.974;2023-04-25T03:04:02;1.25;;;1.15;;
71475;SDS011;59286;59.274;17.974;2023-04-25T03:06:28;1.00;;;0.90;;
71475;SDS011;59286;59.274;17.974;2023-04-25T03:08:53;1.65;;;0.85;;
71475;SDS011;59286;59.274;17.974;2023-04-25T03:11:18;1.40;;;1.30;;
71475;SDS011;59286;59.274;17.974;2023-04-25T03:13:45;1.92;;;1.45;;
71475;SDS011;59286;59.274;17.974;2023-04-25T03:16:10;3.20;;;1.38;;
71475;SDS011;59286;59.274;17.974;2023-04-25T03:18:36;1.55;;;1.30;;
71475;SDS011;59286;59.274;17.974;2023-04-25T03:21:01;1.80;;;1.55;;
71475;SDS011;59286;59.274;17.974;2023-04-25T03:23:26;1.63;;;1.52;;
71475;SDS011;59286;59.274;17.974;2023-04-25T03:25:51;2.00;;;1.42;;
71475;SDS011;59286;59.274;17.974;2023-04-25T03:28:17;2.42;;;1.20;;
71475;SDS011;59286;59.274;17.974;2023-04-25T03:30:42;2.47;;;1.20;;
71475;SDS011;59286;59.274;17.974;2023-04-25T03:33:08;1.63;;;1.52;;
71475;SDS011;59286;59.274;17.974;2023-04-25T03:35:33;1.75;;;1.52;;
71475;SDS011;59286;59.274;17.974;2023-04-25T03:37:58;1.52;;;1.20;;
71475;SDS011;59286;59.274;17.974;2023-04-25T03:40:24;1.70;;;1.60;;
71475;SDS011;59286;59.274;17.974;2023-04-25T03:42:49;2.00;;;1.80;;
71475;SDS011;59286;59.274;17.974;2023-04-25T03:45:15;2.33;;;1.65;;
71475;SDS011;59286;59.274;17.974;2023-04-25T03:47:40;1.80;;;1.70;;
71475;SDS011;59286;59.274;17.974;2023-04-25T03:50:05;1.98;;;1.65;;
71475;SDS011;59286;59.274;17.974;2023-04-25T03:52:31;2.05;;;1.85;;
71475;SDS011;59286;59.274;17.974;2023-04-25T03:54:56;3.85;;;2.45;;
71475;SDS011;59286;59.274;17.974;2023-04-25T03:57:22;3.15;;;2.65;;
71475;SDS011;59286;59.274;17.974;2023-04-25T03:59:47;3.78;;;2.08;;
71475;SDS011;59286;59.274;17.974;2023-04-25T04:02:12;3.47;;;2.35;;
71475;SDS011;59286;59.274;17.974;2023-04-25T04:04:38;3.97;;;2.70;;
71475;SDS011;59286;59.274;17.974;2023-04-25T04:07:03;3.28;;;2.30;;
71475;SDS011;59286;59.274;17.974;2023-04-25T04:09:28;3.70;;;2.65;;
71475;SDS011;59286;59.274;17.974;2023-04-25T04:11:54;4.10;;;3.10;;
71475;SDS011;59286;59.274;17.974;2023-04-25T04:14:19;4.43;;;3.00;;
71475;SDS011;59286;59.274;17.974;2023-04-25T04:16:44;3.72;;;3.00;;
71475;SDS011;59286;59.274;17.974;2023-04-25T04:19:10;3.13;;;2.40;;
71475;SDS011;59286;59.274;17.974;2023-04-25T04:21:35;4.68;;;2.80;;
71475;SDS011;59286;59.274;17.974;2023-04-25T04:24:01;4.45;;;3.35;;
71475;SDS011;59286;59.274;17.974;2023-04-25T04:26:26;6.45;;;3.42;;
71475;SDS011;59286;59.274;17.974;2023-04-25T04:28:52;4.63;;;3.47;;
71475;SDS011;59286;59.274;17.974;2023-04-25T04:31:19;8.15;;;4.15;;
71475;SDS011;59286;59.274;17.974;2023-04-25T04:33:47;5.35;;;3.80;;
71475;SDS011;59286;59.274;17.974;2023-04-25T04:36:13;11.38;;;5.20;;
71475;SDS011;59286;59.274;17.974;2023-04-25T04:38:38;7.07;;;5.07;;
71475;SDS011;59286;59.274;17.974;2023-04-25T04:41:05;10.80;;;5.40;;
71475;SDS011;59286;59.274;17.974;2023-04-25T04:43:30;9.88;;;6.22;;
71475;SDS011;59286;59.274;17.974;2023-04-25T04:45:57;8.60;;;7.50;;
71475;SDS011;59286;59.274;17.974;2023-04-25T04:48:23;13.38;;;7.18;;
71475;SDS011;59286;59.274;17.974;2023-04-25T04:50:49;12.00;;;6.65;;
71475;SDS011;59286;59.274;17.974;2023-04-25T04:53:14;11.18;;;7.43;;
71475;SDS011;59286;59.274;17.974;2023-04-25T04:55:40;13.70;;;7.57;;
71475;SDS011;59286;59.274;17.974;2023-04-25T04:58:08;16.52;;;6.28;;
71475;SDS011;59286;59.274;17.974;2023-04-25T05:00:33;14.02;;;7.68;;
71475;SDS011;59286;59.274;17.974;2023-04-25T05:02:59;12.30;;;7.10;;
71475;SDS011;59286;59.274;17.974;2023-04-25T05:05:25;13.88;;;7.15;;
71475;SDS011;59286;59.274;17.974;2023-04-25T05:07:50;13.15;;;7.72;;
71475;SDS011;59286;59.274;17.974;2023-04-25T05:10:16;14.30;;;8.15;;
71475;SDS011;59286;59.274;17.974;2023-04-25T05:12:43;20.42;;;8.55;;
71475;SDS011;59286;59.274;17.974;2023-04-25T05:15:09;16.52;;;9.50;;
71475;SDS011;59286;59.274;17.974;2023-04-25T05:17:34;21.88;;;9.82;;
71475;SDS011;59286;59.274;17.974;2023-04-25T05:20:00;19.50;;;8.20;;
71475;SDS011;59286;59.274;17.974;2023-04-25T05:22:25;29.63;;;9.82;;
71475;SDS011;59286;59.274;17.974;2023-04-25T05:24:51;20.60;;;10.77;;
71475;SDS011;59286;59.274;17.974;2023-04-25T05:27:17;32.25;;;14.45;;
71475;SDS011;59286;59.274;17.974;2023-04-25T05:29:43;24.90;;;12.05;;
71475;SDS011;59286;59.274;17.974;2023-04-25T05:32:08;23.75;;;12.55;;
71475;SDS011;59286;59.274;17.974;2023-04-25T05:34:34;26.38;;;11.13;;
71475;SDS011;59286;59.274;17.974;2023-04-25T05:36:59;21.60;;;11.43;;
71475;SDS011;59286;59.274;17.974;2023-04-25T05:39:25;27.67;;;11.57;;
71475;SDS011;59286;59.274;17.974;2023-04-25T05:41:51;20.80;;;10.95;;
71475;SDS011;59286;59.274;17.974;2023-04-25T05:44:16;31.77;;;12.85;;
71475;SDS011;59286;59.274;17.974;2023-04-25T05:46:42;32.75;;;14.68;;
71475;SDS011;59286;59.274;17.974;2023-04-25T05:49:07;18.88;;;9.40;;
71475;SDS011;59286;59.274;17.974;2023-04-25T05:51:32;20.27;;;9.30;;
71475;SDS011;59286;59.274;17.974;2023-04-25T05:53:58;15.98;;;9.23;;
71475;SDS011;59286;59.274;17.974;2023-04-25T05:56:23;16.48;;;9.85;;
71475;SDS011;59286;59.274;17.974;2023-04-25T05:58:49;15.75;;;8.93;;
71475;SDS011;59286;59.274;17.974;2023-04-25T06:01:14;16.88;;;9.82;;
71475;SDS011;59286;59.274;17.974;2023-04-25T06:03:39;20.85;;;10.68;;
71475;SDS011;59286;59.274;17.974;2023-04-25T06:06:07;17.00;;;9.27;;
71475;SDS011;59286;59.274;17.974;2023-04-25T06:08:33;16.88;;;8.70;;
71475;SDS011;59286;59.274;17.974;2023-04-25T06:10:58;10.70;;;6.70;;
71475;SDS011;59286;59.274;17.974;2023-04-25T06:13:24;16.10;;;7.10;;
71475;SDS011;59286;59.274;17.974;2023-04-25T06:15:49;15.27;;;8.48;;
71475;SDS011;59286;59.274;17.974;2023-04-25T06:18:14;12.23;;;7.70;;
71475;SDS011;59286;59.274;17.974;2023-04-25T06:20:40;14.35;;;8.25;;
71475;SDS011;59286;59.274;17.974;2023-04-25T06:23:05;15.98;;;9.10;;
71475;SDS011;59286;59.274;17.974;2023-04-25T06:25:30;12.85;;;8.68;;
71475;SDS011;59286;59.274;17.974;2023-04-25T06:27:56;15.15;;;8.25;;
71475;SDS011;59286;59.274;17.974;2023-04-25T06:30:21;11.38;;;7.03;;
71475;SDS011;59286;59.274;17.974;2023-04-25T06:32:50;10.50;;;6.30;;
71475;SDS011;59286;59.274;17.974;2023-04-25T06:35:16;8.35;;;4.95;;
71475;SDS011;59286;59.274;17.974;2023-04-25T06:37:41;5.50;;;3.80;;
71475;SDS011;59286;59.274;17.974;2023-04-25T06:40:06;6.65;;;4.30;;
71475;SDS011;59286;59.274;17.974;2023-04-25T06:42:32;4.97;;;4.10;;
71475;SDS011;59286;59.274;17.974;2023-04-25T06:44:58;4.18;;;3.15;;
71475;SDS011;59286;59.274;17.974;2023-04-25T06:47:23;4.43;;;3.35;;
71475;SDS011;59286;59.274;17.974;2023-04-25T06:49:49;5.10;;;3.15;;
71475;SDS011;59286;59.274;17.974;2023-04-25T06:52:14;3.72;;;3.33;;
71475;SDS011;59286;59.274;17.974;2023-04-25T06:54:40;5.53;;;3.88;;
71475;SDS011;59286;59.274;17.974;2023-04-25T06:57:05;6.88;;;3.67;;
71475;SDS011;59286;59.274;17.974;2023-04-25T06:59:31;5.10;;;3.60;;
71475;SDS011;59286;59.274;17.974;2023-04-25T07:01:57;5.80;;;4.00;;
71475;SDS011;59286;59.274;17.974;2023-04-25T07:04:23;5.18;;;3.30;;
71475;SDS011;59286;59.274;17.974;2023-04-25T07:06:48;5.63;;;3.90;;
71475;SDS011;59286;59.274;17.974;2023-04-25T07:09:14;5.07;;;3.95;;
71475;SDS011;59286;59.274;17.974;2023-04-25T07:11:39;4.53;;;3.35;;
71475;SDS011;59286;59.274;17.974;2023-04-25T07:14:06;5.07;;;4.40;;
71475;SDS011;59286;59.274;17.974;2023-04-25T07:16:31;6.93;;;3.50;;
71475;SDS011;59286;59.274;17.974;2023-04-25T07:18:56;5.25;;;3.25;;
71475;SDS011;59286;59.274;17.974;2023-04-25T07:21:22;6.47;;;3.63;;
71475;SDS011;59286;59.274;17.974;2023-04-25T07:23:47;4.43;;;3.97;;
71475;SDS011;59286;59.274;17.974;2023-04-25T07:26:12;4.15;;;3.58;;
71475;SDS011;59286;59.274;17.974;2023-04-25T07:28:38;4.57;;;3.97;;
71475;SDS011;59286;59.274;17.974;2023-04-25T07:31:03;6.30;;;4.00;;
71475;SDS011;59286;59.274;17.974;2023-04-25T07:33:29;4.55;;;4.10;;
71475;SDS011;59286;59.274;17.974;2023-04-25T07:35:54;5.95;;;4.80;;
71475;SDS011;59286;59.274;17.974;2023-04-25T07:38:20;7.03;;;5.35;;
71475;SDS011;59286;59.274;17.974;2023-04-25T07:40:47;5.03;;;4.13;;
71475;SDS011;59286;59.274;17.974;2023-04-25T07:43:13;4.88;;;4.38;;
71475;SDS011;59286;59.274;17.974;2023-04-25T07:45:41;5.07;;;4.18;;
71475;SDS011;59286;59.274;17.974;2023-04-25T07:48:07;4.65;;;3.88;;
71475;SDS011;59286;59.274;17.974;2023-04-25T07:50:32;5.97;;;5.10;;
71475;SDS011;59286;59.274;17.974;2023-04-25T07:52:58;5.30;;;3.95;;
71475;SDS011;59286;59.274;17.974;2023-04-25T07:55:23;6.38;;;4.80;;
71475;SDS011;59286;59.274;17.974;2023-04-25T07:57:48;7.25;;;5.60;;
71475;SDS011;59286;59.274;17.974;2023-04-25T08:00:14;6.20;;;5.25;;
71475;SDS011;59286;59.274;17.974;2023-04-25T08:02:40;7.53;;;5.60;;
71475;SDS011;59286;59.274;17.974;2023-04-25T08:05:05;7.75;;;5.43;;
71475;SDS011;59286;59.274;17.974;2023-04-25T08:07:33;6.53;;;4.78;;
71475;SDS011;59286;59.274;17.974;2023-04-25T08:09:58;6.18;;;4.47;;
71475;SDS011;59286;59.274;17.974;2023-04-25T08:12:24;3.85;;;3.47;;
71475;SDS011;59286;59.274;17.974;2023-04-25T08:14:49;9.60;;;5.43;;
71475;SDS011;59286;59.274;17.974;2023-04-25T08:17:15;6.82;;;5.07;;
71475;SDS011;59286;59.274;17.974;2023-04-25T08:19:40;6.95;;;5.13;;
71475;SDS011;59286;59.274;17.974;2023-04-25T08:22:06;13.07;;;6.78;;
71475;SDS011;59286;59.274;17.974;2023-04-25T08:24:31;7.63;;;5.82;;
71475;SDS011;59286;59.274;17.974;2023-04-25T08:26:56;11.40;;;7.95;;
71475;SDS011;59286;59.274;17.974;2023-04-25T08:29:23;10.77;;;7.00;;
71475;SDS011;59286;59.274;17.974;2023-04-25T08:31:50;11.15;;;7.07;;
71475;SDS011;59286;59.274;17.974;2023-04-25T08:34:17;9.60;;;6.45;;
71475;SDS011;59286;59.274;17.974;2023-04-25T08:36:43;9.70;;;7.07;;
71475;SDS011;59286;59.274;17.974;2023-04-25T08:39:08;9.65;;;6.38;;
71475;SDS011;59286;59.274;17.974;2023-04-25T08:41:34;7.60;;;6.30;;
71475;SDS011;59286;59.274;17.974;2023-04-25T08:44:01;10.13;;;6.85;;
71475;SDS011;59286;59.274;17.974;2023-04-25T08:46:28;16.55;;;8.27;;
71475;SDS011;59286;59.274;17.974;2023-04-25T08:48:56;9.52;;;6.72;;
71475;SDS011;59286;59.274;17.974;2023-04-25T08:51:26;11.13;;;6.93;;
71475;SDS011;59286;59.274;17.974;2023-04-25T08:53:53;13.05;;;7.07;;
71475;SDS011;59286;59.274;17.974;2023-04-25T08:56:19;12.98;;;8.02;;
71475;SDS011;59286;59.274;17.974;2023-04-25T08:58:48;12.75;;;6.80;;
71475;SDS011;59286;59.274;17.974;2023-04-25T09:01:17;6.80;;;5.55;;
71475;SDS011;59286;59.274;17.974;2023-04-25T09:03:43;10.00;;;6.22;;
71475;SDS011;59286;59.274;17.974;2023-04-25T09:06:10;9.80;;;7.10;;
71475;SDS011;59286;59.274;17.974;2023-04-25T09:08:36;9.15;;;6.72;;
71475;SDS011;59286;59.274;17.974;2023-04-25T09:11:02;8.75;;;6.70;;
71475;SDS011;59286;59.274;17.974;2023-04-25T09:13:28;6.10;;;4.22;;
71475;SDS011;59286;59.274;17.974;2023-04-25T09:15:54;13.45;;;5.78;;
71475;SDS011;59286;59.274;17.974;2023-04-25T09:18:28;10.68;;;5.55;;
71475;SDS011;59286;59.274;17.974;2023-04-25T09:21:07;7.07;;;5.70;;
71475;SDS011;59286;59.274;17.974;2023-04-25T09:23:44;8.20;;;4.55;;
71475;SDS011;59286;59.274;17.974;2023-04-25T09:26:18;8.18;;;5.70;;
71475;SDS011;59286;59.274;17.974;2023-04-25T09:28:45;10.82;;;7.55;;
71475;SDS011;59286;59.274;17.974;2023-04-25T09:31:20;9.98;;;6.70;;
71475;SDS011;59286;59.274;17.974;2023-04-25T09:33:47;7.90;;;5.70;;
71475;SDS011;59286;59.274;17.974;2023-04-25T09:36:12;9.15;;;6.97;;
71475;SDS011;59286;59.274;17.974;2023-04-25T09:38:41;7.30;;;4.70;;
71475;SDS011;59286;59.274;17.974;2023-04-25T09:41:10;6.75;;;5.18;;
71475;SDS011;59286;59.274;17.974;2023-04-25T09:43:36;7.40;;;5.80;;
71475;SDS011;59286;59.274;17.974;2023-04-25T09:46:03;5.47;;;4.25;;
71475;SDS011;59286;59.274;17.974;2023-04-25T09:48:33;5.15;;;4.32;;
71475;SDS011;59286;59.274;17.974;2023-04-25T09:51:14;5.22;;;3.25;;
71475;SDS011;59286;59.274;17.974;2023-04-25T09:53:40;6.70;;;3.85;;
71475;SDS011;59286;59.274;17.974;2023-04-25T09:56:08;6.40;;;5.03;;
71475;SDS011;59286;59.274;17.974;2023-04-25T09:58:38;6.88;;;4.97;;
71475;SDS011;59286;59.274;17.974;2023-04-25T10:01:06;6.57;;;4.82;;
71475;SDS011;59286;59.274;17.974;2023-04-25T10:03:34;5.72;;;4.55;;
71475;SDS011;59286;59.274;17.974;2023-04-25T10:06:02;7.20;;;5.22;;
71475;SDS011;59286;59.274;17.974;2023-04-25T10:08:33;4.90;;;4.35;;
71475;SDS011;59286;59.274;17.974;2023-04-25T10:11:00;6.05;;;5.25;;
71475;SDS011;59286;59.274;17.974;2023-04-25T10:13:28;6.28;;;4.82;;
71475;SDS011;59286;59.274;17.974;2023-04-25T10:15:56;8.50;;;5.90;;
71475;SDS011;59286;59.274;17.974;2023-04-25T10:18:23;6.22;;;4.93;;
71475;SDS011;59286;59.274;17.974;2023-04-25T10:20:49;5.60;;;5.03;;
71475;SDS011;59286;59.274;17.974;2023-04-25T10:23:15;7.00;;;5.40;;
71475;SDS011;59286;59.274;17.974;2023-04-25T10:25:42;6.35;;;5.05;;
71475;SDS011;59286;59.274;17.974;2023-04-25T10:28:08;4.90;;;4.50;;
71475;SDS011;59286;59.274;17.974;2023-04-25T10:30:33;5.72;;;5.13;;
71475;SDS011;59286;59.274;17.974;2023-04-25T10:32:59;4.35;;;3.80;;
71475;SDS011;59286;59.274;17.974;2023-04-25T10:35:25;5.03;;;4.40;;
71475;SDS011;59286;59.274;17.974;2023-04-25T10:38:11;4.88;;;4.25;;
71475;SDS011;59286;59.274;17.974;2023-04-25T10:40:38;4.20;;;3.80;;
71475;SDS011;59286;59.274;17.974;2023-04-25T10:46:18;4.65;;;3.78;;
71475;SDS011;59286;59.274;17.974;2023-04-25T10:48:50;6.05;;;4.45;;
71475;SDS011;59286;59.274;17.974;2023-04-25T10:51:19;4.05;;;3.30;;
71475;SDS011;59286;59.274;17.974;2023-04-25T10:56:20;4.60;;;4.20;;
71475;SDS011;59286;59.274;17.974;2023-04-25T10:58:47;4.13;;;3.72;;
71475;SDS011;59286;59.274;17.974;2023-04-25T11:01:13;4.50;;;3.65;;
71475;SDS011;59286;59.274;17.974;2023-04-25T11:03:43;3.60;;;3.17;;
71475;SDS011;59286;59.274;17.974;2023-04-25T11:06:23;4.43;;;3.40;;
71475;SDS011;59286;59.274;17.974;2023-04-25T11:08:57;4.32;;;3.58;;
71475;SDS011;59286;59.274;17.974;2023-04-25T11:11:26;4.97;;;2.88;;
71475;SDS011;59286;59.274;17.974;2023-04-25T11:13:54;4.38;;;2.90;;
71475;SDS011;59286;59.274;17.974;2023-04-25T11:16:19;3.45;;;2.85;;
71475;SDS011;59286;59.274;17.974;2023-04-25T11:18:49;3.45;;;3.15;;
71475;SDS011;59286;59.274;17.974;2023-04-25T11:21:15;2.88;;;2.65;;
71475;SDS011;59286;59.274;17.974;2023-04-25T11:23:40;2.92;;;2.72;;
71475;SDS011;59286;59.274;17.974;2023-04-25T11:26:10;2.80;;;2.40;;
71475;SDS011;59286;59.274;17.974;2023-04-25T11:28:35;3.42;;;2.88;;
71475;SDS011;59286;59.274;17.974;2023-04-25T11:31:02;3.22;;;2.92;;
71475;SDS011;59286;59.274;17.974;2023-04-25T11:33:27;4.22;;;2.83;;
71475;SDS011;59286;59.274;17.974;2023-04-25T11:35:53;3.00;;;2.70;;
71475;SDS011;59286;59.274;17.974;2023-04-25T11:38:21;2.80;;;2.60;;
71475;SDS011;59286;59.274;17.974;2023-04-25T11:40:53;2.58;;;2.38;;
71475;SDS011;59286;59.274;17.974;2023-04-25T11:43:22;2.65;;;2.45;;
71475;SDS011;59286;59.274;17.974;2023-04-25T11:45:48;4.63;;;3.20;;
71475;SDS011;59286;59.274;17.974;2023-04-25T11:48:14;3.30;;;3.00;;
71475;SDS011;59286;59.274;17.974;2023-04-25T11:50:40;3.22;;;2.92;;
71475;SDS011;59286;59.274;17.974;2023-04-25T11:53:05;3.65;;;3.28;;
71475;SDS011;59286;59.274;17.974;2023-04-25T11:55:31;4.43;;;3.63;;
71475;SDS011;59286;59.274;17.974;2023-04-25T11:57:58;3.20;;;3.00;;
71475;SDS011;59286;59.274;17.974;2023-04-25T12:00:25;3.88;;;3.45;;
71475;SDS011;59286;59.274;17.974;2023-04-25T12:02:55;3.75;;;3.45;;
71475;SDS011;59286;59.274;17.974;2023-04-25T12:05:30;4.30;;;3.90;;
71475;SDS011;59286;59.274;17.974;2023-04-25T12:07:58;4.07;;;3.55;;
71475;SDS011;59286;59.274;17.974;2023-04-25T12:10:36;3.63;;;3.10;;
71475;SDS011;59286;59.274;17.974;2023-04-25T12:13:16;4.00;;;3.58;;
71475;SDS011;59286;59.274;17.974;2023-04-25T12:15:43;3.08;;;2.78;;
71475;SDS011;59286;59.274;17.974;2023-04-25T12:18:09;3.47;;;3.17;;
71475;SDS011;59286;59.274;17.974;2023-04-25T12:20:34;5.68;;;3.10;;
71475;SDS011;59286;59.274;17.974;2023-04-25T12:23:00;3.35;;;3.05;;
71475;SDS011;59286;59.274;17.974;2023-04-25T12:25:43;4.18;;;3.40;;
71475;SDS011;59286;59.274;17.974;2023-04-25T12:30:52;4.35;;;3.38;;
71475;SDS011;59286;59.274;17.974;2023-04-25T12:33:17;4.50;;;4.10;;
71475;SDS011;59286;59.274;17.974;2023-04-25T12:35:43;5.78;;;3.63;;
71475;SDS011;59286;59.274;17.974;2023-04-25T12:38:08;5.10;;;3.58;;
71475;SDS011;59286;59.274;17.974;2023-04-25T12:40:33;3.80;;;3.40;;
71475;SDS011;59286;59.274;17.974;2023-04-25T12:42:59;3.92;;;3.20;;
71475;SDS011;59286;59.274;17.974;2023-04-25T12:45:24;3.35;;;2.67;;
71475;SDS011;59286;59.274;17.974;2023-04-25T12:47:50;3.65;;;3.28;;
71475;SDS011;59286;59.274;17.974;2023-04-25T12:50:16;4.07;;;3.38;;
71475;SDS011;59286;59.274;17.974;2023-04-25T12:52:41;4.05;;;2.90;;
71475;SDS011;59286;59.274;17.974;2023-04-25T12:55:06;4.15;;;3.00;;
71475;SDS011;59286;59.274;17.974;2023-04-25T12:57:32;3.30;;;3.00;;
71475;SDS011;59286;59.274;17.974;2023-04-25T12:59:57;6.00;;;3.63;;
71475;SDS011;59286;59.274;17.974;2023-04-25T13:02:22;5.38;;;4.60;;
71475;SDS011;59286;59.274;17.974;2023-04-25T13:04:48;4.22;;;3.83;;
71475;SDS011;59286;59.274;17.974;2023-04-25T13:07:13;4.00;;;3.63;;
71475;SDS011;59286;59.274;17.974;2023-04-25T13:09:38;5.95;;;3.85;;
71475;SDS011;59286;59.274;17.974;2023-04-25T13:12:04;5.55;;;3.70;;
71475;SDS011;59286;59.274;17.974;2023-04-25T13:14:30;4.05;;;3.65;;
71475;SDS011;59286;59.274;17.974;2023-04-25T13:16:55;3.78;;;3.22;;
71475;SDS011;59286;59.274;17.974;2023-04-25T13:19:21;5.07;;;3.90;;
71475;SDS011;59286;59.274;17.974;2023-04-25T13:21:46;4.70;;;3.95;;
71475;SDS011;59286;59.274;17.974;2023-04-25T13:24:11;5.75;;;3.80;;
71475;SDS011;59286;59.274;17.974;2023-04-25T13:26:37;4.55;;;4.10;;
71475;SDS011;59286;59.274;17.974;2023-04-25T13:29:02;5.45;;;3.90;;
71475;SDS011;59286;59.274;17.974;2023-04-25T13:31:28;5.03;;;3.92;;
71475;SDS011;59286;59.274;17.974;2023-04-25T13:33:54;4.32;;;3.78;;
71475;SDS011;59286;59.274;17.974;2023-04-25T13:36:20;4.97;;;4.05;;
71475;SDS011;59286;59.274;17.974;2023-04-25T13:38:45;5.68;;;4.00;;
71475;SDS011;59286;59.274;17.974;2023-04-25T13:41:12;4.95;;;3.60;;
71475;SDS011;59286;59.274;17.974;2023-04-25T13:43:42;5.75;;;3.85;;
71475;SDS011;59286;59.274;17.974;2023-04-25T13:46:08;5.57;;;3.88;;
71475;SDS011;59286;59.274;17.974;2023-04-25T13:48:33;5.55;;;4.18;;
71475;SDS011;59286;59.274;17.974;2023-04-25T13:50:58;7.45;;;4.45;;
71475;SDS011;59286;59.274;17.974;2023-04-25T13:53:24;4.45;;;3.50;;
71475;SDS011;59286;59.274;17.974;2023-04-25T13:55:50;4.10;;;3.70;;
71475;SDS011;59286;59.274;17.974;2023-04-25T13:58:15;4.47;;;3.60;;
71475;SDS011;59286;59.274;17.974;2023-04-25T14:00:40;4.65;;;3.47;;
71475;SDS011;59286;59.274;17.974;2023-04-25T14:03:08;5.70;;;3.60;;
71475;SDS011;59286;59.274;17.974;2023-04-25T14:05:34;4.95;;;3.65;;
71475;SDS011;59286;59.274;17.974;2023-04-25T14:08:04;5.43;;;3.88;;
71475;SDS011;59286;59.274;17.974;2023-04-25T14:10:34;7.55;;;4.03;;
71475;SDS011;59286;59.274;17.974;2023-04-25T14:13:00;4.97;;;3.90;;
71475;SDS011;59286;59.274;17.974;2023-04-25T14:15:27;5.80;;;3.60;;
71475;SDS011;59286;59.274;17.974;2023-04-25T14:17:53;6.30;;;3.80;;
71475;SDS011;59286;59.274;17.974;2023-04-25T14:20:18;4.20;;;3.78;;
71475;SDS011;59286;59.274;17.974;2023-04-25T14:22:46;4.93;;;3.70;;
71475;SDS011;59286;59.274;17.974;2023-04-25T14:25:11;4.28;;;3.88;;
71475;SDS011;59286;59.274;17.974;2023-04-25T14:27:37;5.03;;;4.05;;
71475;SDS011;59286;59.274;17.974;2023-04-25T14:30:02;5.28;;;4.35;;
71475;SDS011;59286;59.274;17.974;2023-04-25T14:32:27;5.07;;;4.28;;
71475;SDS011;59286;59.274;17.974;2023-04-25T14:34:53;5.35;;;4.20;;